Time;durP1;ratioP1;P1;durP2;ratioP2;P2;SDS_P1;SDS_P2;PMS_P1;PMS_P2;Temp;Humidity;BMP_temperature;BMP_pressure;BME280_temperature;BME280_humidity;BME280_pressure;Samples;Min_cycle;Max_cycle;Signal;HPM_P1;HPM_P2
2021/04/25 00:00:37;;;;;;;8.67;7.77;;;7.10;99.00;;;7.94;61.71;98282.03;5207761;28;20669;-63
2021/04/25 00:03:09;;;;;;;8.10;7.30;;;7.10;98.60;;;7.89;61.96;98285.88;5207658;28;20204;-63
2021/04/25 00:05:41;;;;;;;9.57;7.93;;;7.00;99.20;;;7.85;62.53;98294.09;5207827;28;20197;-63
2021/04/25 00:08:12;;;;;;;8.70;7.90;;;6.90;99.30;;;7.81;62.47;98292.06;5207404;28;20228;-63
2021/04/25 00:10:45;;;;;;;9.00;8.10;;;6.90;99.40;;;7.85;62.21;98291.53;5208100;28;20245;-63
2021/04/25 00:13:17;;;;;;;9.33;8.53;;;6.90;99.30;;;7.80;62.66;98286.09;5206591;28;20202;-63
2021/04/25 00:15:50;;;;;;;11.87;10.27;;;6.80;99.50;;;7.78;63.07;98286.75;5207828;28;20221;-62
2021/04/25 00:18:22;;;;;;;16.57;13.30;;;6.80;99.70;;;7.67;63.11;98279.22;5206100;28;20225;-62
2021/04/25 00:20:54;;;;;;;14.13;12.43;;;6.80;99.70;;;7.63;63.52;98286.50;5207875;28;20341;-63
2021/04/25 00:23:26;;;;;;;13.33;12.03;;;6.80;99.90;;;7.62;63.50;98285.59;5206384;28;20588;-62
2021/04/25 00:25:59;;;;;;;13.90;12.23;;;6.70;99.90;;;7.62;63.24;98279.66;5207443;28;20207;-63
2021/04/25 00:28:31;;;;;;;10.83;9.07;;;6.70;99.90;;;7.63;63.40;98273.78;5199392;28;20536;-63
2021/04/25 00:31:04;;;;;;;9.73;8.83;;;6.70;99.70;;;7.52;63.51;98267.88;5186925;28;20225;-63
2021/04/25 00:33:37;;;;;;;9.80;8.83;;;6.60;99.80;;;7.49;64.72;98269.31;5206297;28;20198;-63
2021/04/25 00:36:09;;;;;;;11.47;8.70;;;6.60;99.90;;;7.44;63.61;98272.41;5207040;28;20223;-62
2021/04/25 00:38:41;;;;;;;10.40;9.40;;;6.50;99.90;;;7.39;64.32;98266.06;5206687;28;20230;-63
2021/04/25 00:41:14;;;;;;;13.27;10.73;;;6.50;99.90;;;7.39;64.10;98265.19;5206540;28;20194;-63
2021/04/25 00:43:46;;;;;;;14.37;10.13;;;6.50;99.90;;;7.32;64.47;98266.38;5198746;28;20201;-63
2021/04/25 00:46:19;;;;;;;9.53;8.43;;;6.50;99.90;;;7.31;63.91;98261.19;5205949;28;20293;-62
2021/04/25 00:48:52;;;;;;;9.50;8.53;;;6.40;99.90;;;7.28;64.07;98266.03;5205626;28;20300;-63
2021/04/25 00:51:25;;;;;;;9.03;8.13;;;6.40;99.90;;;7.28;63.85;98263.50;5206923;28;20665;-63
2021/04/25 00:53:57;;;;;;;9.10;8.20;;;6.30;99.90;;;7.26;64.78;98253.19;5206674;28;20194;-63
2021/04/25 00:56:32;;;;;;;9.73;8.57;;;6.30;99.90;;;7.21;64.99;98259.56;5206693;28;20206;-63
2021/04/25 00:59:05;;;;;;;8.60;7.67;;;6.30;99.90;;;7.21;64.06;98260.47;5206455;28;20658;-63
2021/04/25 01:01:37;;;;;;;9.97;8.33;;;6.30;99.90;;;7.15;64.50;98265.09;5206130;28;20198;-63
2021/04/25 01:04:09;;;;;;;9.90;8.90;;;6.20;99.90;;;7.08;65.22;98262.84;5204953;28;20206;-63
2021/04/25 01:06:41;;;;;;;10.43;9.27;;;6.20;99.90;;;7.11;64.48;98262.19;5206850;28;20205;-62
2021/04/25 01:09:13;;;;;;;8.87;7.97;;;6.20;99.90;;;7.11;64.39;98270.69;5200595;28;20199;-63
2021/04/25 01:11:46;;;;;;;9.13;8.03;;;6.20;99.90;;;7.04;65.20;98265.94;5201393;28;20198;-62
2021/04/25 01:14:18;;;;;;;10.30;9.27;;;6.10;99.90;;;7.00;64.49;98269.00;5202805;28;20681;-63
2021/04/25 01:16:51;;;;;;;10.93;9.40;;;6.10;99.90;;;7.00;65.37;98258.81;5206042;28;20289;-62
2021/04/25 01:19:23;;;;;;;10.33;9.27;;;6.10;99.90;;;6.99;65.43;98267.22;5202076;28;20218;-62
2021/04/25 01:21:56;;;;;;;10.17;8.10;;;6.00;99.90;;;6.96;65.30;98267.00;5205774;28;20206;-63
2021/04/25 01:24:28;;;;;;;10.17;8.50;;;6.10;99.90;;;6.92;65.11;98260.75;5205307;28;20661;-62
2021/04/25 01:27:00;;;;;;;9.27;8.37;;;6.00;99.90;;;6.95;65.57;98270.28;5195084;28;20217;-62
2021/04/25 01:29:32;;;;;;;9.87;8.47;;;6.00;99.90;;;6.89;65.99;98264.72;5204777;28;20201;-63
2021/04/25 01:32:05;;;;;;;9.10;8.20;;;6.00;99.90;;;6.80;65.41;98269.09;5203122;28;20251;-62
2021/04/25 01:34:37;;;;;;;9.77;7.90;;;5.80;99.90;;;6.73;65.85;98273.69;5205756;28;20218;-62
2021/04/25 01:37:10;;;;;;;7.97;7.13;;;5.80;99.90;;;6.71;66.47;98275.22;5206227;28;20316;-63
2021/04/25 01:39:42;;;;;;;8.57;7.20;;;5.80;99.90;;;6.65;65.99;98273.88;5205527;28;20198;-62
2021/04/25 01:42:14;;;;;;;9.00;8.13;;;5.70;99.90;;;6.61;66.26;98274.38;5206337;28;20212;-62
2021/04/25 01:44:46;;;;;;;8.63;7.80;;;5.70;99.90;;;6.61;66.32;98277.84;5202548;28;20208;-63
2021/04/25 01:47:18;;;;;;;9.10;8.27;;;5.70;99.90;;;6.49;66.36;98275.19;5197162;28;20221;-63
2021/04/25 01:49:50;;;;;;;8.30;7.50;;;5.50;99.90;;;6.53;66.67;98278.88;5205602;28;20199;-63
2021/04/25 01:52:23;;;;;;;8.70;7.80;;;5.60;99.90;;;6.49;67.15;98277.72;5205802;28;20191;-63
2021/04/25 01:54:55;;;;;;;8.30;7.57;;;5.60;99.90;;;6.43;67.95;98281.44;5205792;28;20243;-63
2021/04/25 01:57:27;;;;;;;9.20;8.30;;;5.60;99.90;;;6.45;67.37;98285.00;5204423;28;20222;-62
2021/04/25 02:00:00;;;;;;;9.50;8.60;;;5.60;99.90;;;6.41;67.47;98278.78;5202692;28;20190;-63
2021/04/25 02:02:33;;;;;;;10.73;9.37;;;5.50;99.90;;;6.41;67.60;98288.03;5202959;28;20197;-63
2021/04/25 02:05:06;;;;;;;9.03;8.13;;;5.50;99.90;;;6.37;67.29;98283.47;5205130;28;20209;-63
2021/04/25 02:07:39;;;;;;;11.00;9.00;;;5.50;99.90;;;6.34;67.43;98278.16;5204821;28;20215;-63
2021/04/25 02:10:12;;;;;;;10.87;9.00;;;5.40;99.90;;;6.28;67.55;98281.97;5205438;28;20571;-62
2021/04/25 02:12:45;;;;;;;10.50;8.20;;;5.40;99.90;;;6.35;68.01;98277.38;5204544;28;20198;-63
2021/04/25 02:15:17;;;;;;;10.27;8.87;;;5.40;99.90;;;6.27;68.29;98280.22;5205738;28;20219;-63
2021/04/25 02:17:49;;;;;;;10.60;8.90;;;5.40;99.90;;;6.26;67.82;98280.97;5204224;28;20296;-63
2021/04/25 02:20:23;;;;;;;10.90;9.27;;;5.40;99.90;;;6.30;67.84;98289.72;5204353;28;20237;-63
2021/04/25 02:22:57;;;;;;;10.87;9.33;;;5.40;99.90;;;6.23;68.38;98284.91;5205033;28;20311;-63
2021/04/25 02:25:29;;;;;;;9.10;8.20;;;5.40;99.90;;;6.23;68.21;98283.25;5205062;28;20227;-63
2021/04/25 02:28:01;;;;;;;9.73;8.77;;;5.40;99.90;;;6.23;68.96;98278.19;5203164;28;20214;-62
2021/04/25 02:30:37;;;;;;;10.13;8.93;;;5.40;99.90;;;6.19;68.78;98275.28;5205002;28;20540;-63
2021/04/25 02:33:09;;;;;;;8.70;7.80;;;5.40;99.90;;;6.23;68.78;98273.09;5204425;28;20200;-63
2021/04/25 02:35:41;;;;;;;9.93;8.20;;;5.40;99.90;;;6.22;68.71;98280.59;5203026;28;20701;-62
2021/04/25 02:38:14;;;;;;;8.70;7.90;;;5.30;99.90;;;6.18;68.67;98283.66;5203999;28;20227;-63
2021/04/25 02:40:47;;;;;;;9.27;8.17;;;5.30;99.90;;;6.15;67.91;98283.41;5205395;28;20581;-62
2021/04/25 02:43:19;;;;;;;10.53;8.57;;;5.20;99.90;;;6.10;68.41;98283.06;5197190;28;20216;-63
2021/04/25 02:45:51;;;;;;;9.33;8.40;;;5.20;99.90;;;6.06;68.16;98284.44;5205027;28;20625;-63
2021/04/25 02:48:23;;;;;;;10.00;9.00;;;5.20;99.90;;;6.06;68.64;98288.63;5203327;28;20213;-63
2021/04/25 02:50:55;;;;;;;9.47;8.43;;;5.10;99.90;;;6.03;68.97;98286.72;5204582;28;20203;-62
2021/04/25 02:53:28;;;;;;;9.83;8.83;;;5.10;99.90;;;5.98;69.38;98280.41;5204931;28;20209;-62
2021/04/25 02:56:00;;;;;;;9.43;8.37;;;5.10;99.90;;;5.93;69.67;98286.75;5204408;28;20221;-62
2021/04/25 02:58:32;;;;;;;8.83;7.90;;;5.10;99.90;;;5.95;69.61;98284.31;5200761;28;20218;-62
2021/04/25 03:01:04;;;;;;;8.87;7.97;;;5.10;99.90;;;5.93;69.00;98280.75;5205065;28;20190;-63
2021/04/25 03:03:36;;;;;;;9.23;8.20;;;5.10;99.90;;;5.88;68.92;98273.66;5203707;28;20287;-63
2021/04/25 03:06:08;;;;;;;10.70;9.33;;;5.00;99.90;;;5.88;68.62;98268.56;5204794;28;20225;-62
2021/04/25 03:08:41;;;;;;;10.40;9.17;;;5.00;99.90;;;5.84;68.58;98266.56;5204047;28;20231;-63
2021/04/25 03:11:13;;;;;;;13.37;9.37;;;4.90;99.90;;;5.76;69.04;98262.50;5203862;28;20201;-63
2021/04/25 03:13:45;;;;;;;10.37;9.33;;;4.90;99.90;;;5.75;69.75;98257.28;5200153;28;20568;-62
2021/04/25 03:16:19;;;;;;;9.83;8.57;;;4.80;99.90;;;5.71;69.55;98252.75;5203971;28;20218;-62
2021/04/25 03:18:51;;;;;;;9.83;8.33;;;4.80;99.90;;;5.56;69.04;98257.44;5203285;28;20223;-63
2021/04/25 03:21:24;;;;;;;10.10;9.07;;;4.60;99.90;;;5.46;69.29;98253.25;5203764;28;20226;-62
2021/04/25 03:23:57;;;;;;;10.30;9.20;;;4.60;99.90;;;5.48;69.79;98253.38;5204312;28;20198;-62
2021/04/25 03:26:29;;;;;;;11.47;9.90;;;4.60;99.90;;;5.47;70.20;98256.69;5204454;28;20200;-63
2021/04/25 03:29:01;;;;;;;8.57;7.77;;;4.60;99.90;;;5.48;70.37;98254.28;5203901;28;20221;-62
2021/04/25 03:31:33;;;;;;;9.63;8.60;;;4.50;99.90;;;5.49;70.56;98256.03;5203575;28;20667;-62
2021/04/25 03:34:05;;;;;;;12.17;8.83;;;4.60;99.90;;;5.50;70.98;98262.00;5203938;28;20580;-62
2021/04/25 03:36:37;;;;;;;10.30;9.17;;;4.70;99.90;;;5.57;70.53;98261.75;5224297;28;20231;-62
2021/04/25 03:39:11;;;;;;;9.57;8.43;;;4.70;99.90;;;5.57;69.80;98255.03;5250516;22;20221;-56
2021/04/25 03:41:43;;;;;;;10.63;8.57;;;4.60;99.90;;;5.54;69.77;98254.78;5245540;28;20202;-57
2021/04/25 03:44:15;;;;;;;10.17;9.07;;;4.50;99.90;;;5.41;70.33;98257.06;5243491;28;20219;-56
2021/04/25 03:46:47;;;;;;;10.20;8.97;;;4.50;99.90;;;5.45;70.78;98265.81;5246209;28;20574;-54
2021/04/25 03:49:21;;;;;;;9.73;8.73;;;4.50;99.90;;;5.45;70.43;98265.81;5226599;28;20312;-54
2021/04/25 03:51:55;;;;;;;9.70;8.60;;;4.50;99.90;;;5.37;70.72;98260.09;5216885;28;20199;-52
2021/04/25 03:54:31;;;;;;;10.77;9.03;;;4.50;99.90;;;5.42;70.29;98269.84;5218609;28;20201;-55
2021/04/25 03:57:05;;;;;;;9.87;8.83;;;4.60;99.90;;;5.41;71.34;98269.75;5225440;28;20213;-52
2021/04/25 03:59:37;;;;;;;10.23;9.13;;;4.60;99.90;;;5.39;70.76;98274.66;5222927;28;20285;-55
2021/04/25 04:02:09;;;;;;;10.03;8.97;;;4.50;99.90;;;5.36;70.41;98268.47;5224203;28;20208;-52
2021/04/25 04:04:41;;;;;;;10.67;8.40;;;4.40;99.90;;;5.27;71.89;98273.66;5224067;28;20210;-56
2021/04/25 04:07:13;;;;;;;11.43;8.93;;;4.40;99.90;;;5.26;71.55;98282.00;5225019;28;20220;-55
2021/04/25 04:09:46;;;;;;;9.97;8.60;;;4.40;99.90;;;5.25;71.11;98270.09;5219293;28;20190;-58
2021/04/25 04:12:18;;;;;;;9.57;8.57;;;4.30;99.90;;;5.20;71.13;98276.41;5224447;28;20210;-55
2021/04/25 04:14:50;;;;;;;10.10;8.40;;;4.30;99.90;;;5.19;70.84;98270.47;5224241;28;20217;-56
2021/04/25 04:17:22;;;;;;;9.87;8.93;;;4.20;99.90;;;5.14;70.81;98274.25;5224907;28;20564;-55
2021/04/25 04:19:54;;;;;;;11.20;8.53;;;4.20;99.90;;;5.14;70.85;98280.97;5209088;28;20253;-54
2021/04/25 04:22:26;;;;;;;9.53;8.33;;;4.10;99.90;;;5.08;71.65;98280.47;5215760;28;20688;-53
2021/04/25 04:24:59;;;;;;;10.30;9.30;;;4.20;99.90;;;5.10;71.47;98286.56;5228376;28;20222;-56
2021/04/25 04:27:31;;;;;;;9.80;8.03;;;4.10;99.90;;;5.11;71.49;98285.78;5225943;28;20219;-57
2021/04/25 04:30:05;;;;;;;9.90;8.80;;;4.20;99.90;;;5.10;71.36;98278.94;5223818;28;20202;-56
2021/04/25 04:32:37;;;;;;;9.30;8.40;;;4.20;99.90;;;5.12;71.28;98288.47;5226047;28;20235;-58
2021/04/25 04:35:11;;;;;;;10.23;9.23;;;4.10;99.90;;;5.13;71.26;98294.41;5227438;28;20326;-55
2021/04/25 04:37:43;;;;;;;10.33;9.33;;;4.20;99.90;;;5.15;71.68;98298.84;5228018;28;20727;-55
2021/04/25 04:40:16;;;;;;;10.50;9.40;;;4.30;99.90;;;5.14;71.52;98302.13;5228192;28;20668;-53
2021/04/25 04:42:48;;;;;;;10.13;9.10;;;4.20;99.90;;;5.22;71.63;98300.25;5209941;28;20211;-53
2021/04/25 04:45:20;;;;;;;12.13;9.40;;;4.30;99.90;;;5.24;71.63;98303.81;5228475;28;20205;-53
2021/04/25 04:47:54;;;;;;;12.43;10.13;;;4.30;99.90;;;5.35;70.91;98303.06;5209915;28;20593;-51
2021/04/25 04:50:26;;;;;;;12.40;10.30;;;4.40;99.90;;;5.24;71.21;98298.75;5227649;28;20198;-52
2021/04/25 04:52:58;;;;;;;10.47;9.50;;;4.40;99.90;;;5.29;70.56;98300.00;5228235;28;20229;-51
2021/04/25 04:55:31;;;;;;;11.10;9.73;;;4.30;99.90;;;5.28;71.08;98303.28;5227985;28;20219;-52
2021/04/25 04:58:03;;;;;;;13.23;10.43;;;4.30;99.90;;;5.31;71.26;98310.28;5226712;28;20590;-54
2021/04/25 05:00:35;;;;;;;11.93;10.67;;;4.40;99.90;;;5.28;71.26;98318.50;5227219;28;20203;-52
2021/04/25 05:03:07;;;;;;;13.10;10.17;;;4.40;99.90;;;5.31;70.60;98321.28;5220462;28;20215;-55
2021/04/25 05:05:39;;;;;;;11.03;9.93;;;4.40;99.90;;;5.29;70.88;98317.72;5227778;28;20599;-52
2021/04/25 05:08:11;;;;;;;12.93;10.03;;;4.40;99.90;;;5.39;71.12;98325.38;5227421;28;20607;-51
2021/04/25 05:10:43;;;;;;;13.77;10.37;;;4.50;99.90;;;5.46;71.33;98326.75;5227651;28;20223;-54
2021/04/25 05:13:15;;;;;;;10.80;9.57;;;4.50;99.90;;;5.53;71.56;98331.59;5226806;28;20557;-56
2021/04/25 05:15:47;;;;;;;11.00;9.90;;;4.60;99.90;;;5.73;70.39;98335.81;5227413;28;20707;-51
2021/04/25 05:18:19;;;;;;;12.13;9.57;;;4.80;99.90;;;6.04;68.26;98333.31;5226749;28;20213;-51
2021/04/25 05:20:51;;;;;;;10.90;9.80;;;4.90;99.90;;;6.02;68.78;98334.81;5227425;28;20198;-55
2021/04/25 05:23:24;;;;;;;11.43;9.90;;;5.00;99.90;;;6.18;68.31;98340.41;5226990;28;20221;-51
2021/04/25 05:25:56;;;;;;;12.70;10.47;;;5.10;99.90;;;6.63;67.76;98339.75;5227126;28;20201;-53
2021/04/25 05:28:29;;;;;;;10.90;9.77;;;5.50;99.90;;;7.16;65.97;98332.97;5210830;28;20214;-51
2021/04/25 05:31:02;;;;;;;12.03;10.40;;;5.80;99.90;;;7.61;64.58;98338.91;5215658;28;20255;-52
2021/04/25 05:33:34;;;;;;;10.67;9.57;;;6.30;99.90;;;8.17;62.18;98349.03;5226794;28;20209;-55
2021/04/25 05:36:06;;;;;;;11.37;10.13;;;6.90;99.90;;;8.56;61.28;98351.13;5225871;28;20228;-54
2021/04/25 05:38:38;;;;;;;11.87;10.67;;;7.20;99.90;;;8.83;60.96;98354.75;5222006;28;20312;-51
2021/04/25 05:41:11;;;;;;;10.50;9.40;;;7.40;99.90;;;9.17;58.72;98355.47;5218717;28;20219;-59
2021/04/25 05:43:45;;;;;;;12.57;9.67;;;7.50;99.90;;;9.50;57.61;98352.63;5226548;28;20198;-56
2021/04/25 05:46:18;;;;;;;10.60;9.57;;;7.70;99.90;;;9.98;56.73;98341.41;5226241;28;20193;-57
2021/04/25 05:48:50;;;;;;;12.00;10.70;;;8.20;99.70;;;10.34;54.25;98343.91;5225974;28;20251;-57
2021/04/25 05:51:22;;;;;;;13.00;10.17;;;8.70;98.30;;;10.60;53.34;98347.25;5226167;28;20209;-57
2021/04/25 05:53:54;;;;;;;11.63;10.33;;;9.00;97.40;;;10.87;53.20;98347.25;5210859;28;20194;-57
2021/04/25 05:56:27;;;;;;;12.03;10.13;;;9.10;97.40;;;11.07;53.22;98349.41;5219638;28;20645;-55
2021/04/25 05:58:59;;;;;;;10.63;9.53;;;9.10;97.40;;;11.33;51.95;98356.16;5225805;28;20219;-57
2021/04/25 06:01:31;;;;;;;11.37;10.17;;;9.30;97.10;;;11.70;51.73;98353.28;5225939;28;20193;-59
2021/04/25 06:04:06;;;;;;;15.53;13.93;;;9.40;96.90;;;12.09;49.49;98362.50;5225657;28;20198;-56
2021/04/25 06:06:38;;;;;;;16.43;14.73;;;9.80;96.10;;;12.25;49.06;98356.59;5226038;28;20189;-57
2021/04/25 06:09:10;;;;;;;14.43;12.93;;;10.00;95.70;;;12.66;49.25;98355.53;5221790;28;20309;-57
2021/04/25 06:11:43;;;;;;;12.30;10.40;;;10.30;95.50;;;12.99;47.52;98353.06;5225932;28;20197;-61
2021/04/25 06:14:15;;;;;;;12.95;10.48;;;10.50;94.90;;;13.14;48.46;98355.63;5226200;28;20731;-61
2021/04/25 06:16:47;;;;;;;12.13;10.38;;;10.60;94.80;;;13.62;46.05;98351.38;5224496;28;20222;-57
2021/04/25 06:19:20;;;;;;;10.45;9.35;;;11.00;94.30;;;13.88;45.81;98352.78;5223794;28;20247;-56
2021/04/25 06:21:52;;;;;;;10.68;9.57;;;11.40;93.10;;;14.10;44.81;98354.75;5224139;28;20193;-59
2021/04/25 06:24:24;;;;;;;11.23;9.77;;;11.50;92.80;;;14.53;43.61;98354.38;5224382;28;20322;-56
2021/04/25 06:26:57;;;;;;;11.57;10.32;;;11.80;92.40;;;14.51;44.12;98350.81;5219827;28;20196;-60
2021/04/25 06:29:29;;;;;;;11.35;10.18;;;11.90;92.10;;;14.68;43.45;98354.22;5219342;28;20301;-59
2021/04/25 06:32:01;;;;;;;11.05;9.52;;;12.00;91.70;;;14.83;42.97;98350.72;5210172;28;20185;-57
2021/04/25 06:34:35;;;;;;;14.18;10.77;;;12.10;91.70;;;15.24;42.67;98351.78;5220301;28;20318;-59
2021/04/25 06:37:08;;;;;;;11.65;10.45;;;12.50;91.40;;;15.61;42.09;98356.06;5222864;28;20257;-58
2021/04/25 06:39:40;;;;;;;12.23;10.55;;;13.00;90.70;;;15.99;41.29;98354.34;5224071;28;20219;-60
2021/04/25 06:42:13;;;;;;;11.38;10.20;;;13.20;90.00;;;16.16;41.03;98352.50;5223923;28;20209;-57
2021/04/25 06:44:45;;;;;;;12.85;11.05;;;13.30;89.90;;;16.23;40.65;98356.22;5223739;28;20683;-57
2021/04/25 06:47:17;;;;;;;13.35;11.35;;;13.50;89.00;;;16.52;39.98;98358.34;5223701;28;20201;-57
2021/04/25 06:49:49;;;;;;;13.50;11.07;;;13.50;88.40;;;16.56;40.32;98367.06;5223433;28;20197;-58
2021/04/25 06:52:21;;;;;;;12.60;11.32;;;13.60;88.80;;;16.53;39.88;98360.09;5223339;28;20197;-59
2021/04/25 06:54:53;;;;;;;13.32;11.93;;;14.00;86.80;;;16.43;39.26;98363.13;5223580;28;20209;-57
2021/04/25 06:57:29;;;;;;;13.25;11.77;;;13.70;86.00;;;16.66;39.14;98359.78;5223599;28;20217;-60
2021/04/25 07:00:01;;;;;;;14.35;12.27;;;14.00;85.80;;;16.80;38.89;98354.34;5223061;28;20471;-63
2021/04/25 07:02:34;;;;;;;13.02;11.73;;;14.40;84.40;;;17.08;38.82;98354.63;5218894;28;20200;-63
2021/04/25 07:05:07;;;;;;;13.13;11.27;;;14.60;85.30;;;17.41;37.79;98359.31;5226331;28;20288;-63
2021/04/25 07:07:39;;;;;;;13.80;12.40;;;14.70;83.00;;;17.27;38.25;98368.25;5233289;28;20248;-63
2021/04/25 07:10:12;;;;;;;12.57;11.27;;;14.60;84.10;;;17.87;37.60;98357.59;5225073;28;20198;-63
2021/04/25 07:12:46;;;;;;;12.95;11.60;;;14.90;83.00;;;18.44;36.31;98358.78;5225563;28;20664;-63
2021/04/25 07:15:18;;;;;;;13.85;12.38;;;15.30;81.90;;;18.80;34.84;98347.00;5225179;28;20221;-59
2021/04/25 07:17:51;;;;;;;14.63;13.13;;;16.00;79.20;;;18.93;35.04;98350.91;5224209;28;20224;-59
2021/04/25 07:20:23;;;;;;;14.10;12.70;;;15.80;79.40;;;18.89;34.59;98357.69;5224684;28;20197;-59
2021/04/25 07:22:55;;;;;;;14.35;12.85;;;15.80;78.80;;;18.69;34.87;98355.31;5225237;28;20193;-59
2021/04/25 07:25:27;;;;;;;16.23;13.77;;;15.60;79.40;;;18.45;34.72;98354.47;5225702;28;20193;-61
2021/04/25 07:28:02;;;;;;;13.88;12.57;;;15.90;78.10;;;18.96;34.65;98353.59;5224934;28;20213;-58
2021/04/25 07:30:34;;;;;;;14.32;12.80;;;15.90;78.60;;;19.55;33.68;98350.25;5223551;28;20193;-60
2021/04/25 07:33:06;;;;;;;13.55;12.25;;;16.30;77.80;;;19.50;33.10;98344.03;5217902;28;20216;-61
2021/04/25 07:35:38;;;;;;;15.13;13.68;;;16.40;76.20;;;19.74;32.80;98337.81;5224405;28;20231;-62
2021/04/25 07:38:11;;;;;;;14.30;13.00;;;16.30;75.80;;;20.14;32.08;98349.31;5224385;28;20225;-60
2021/04/25 07:40:43;;;;;;;15.15;13.68;;;16.40;75.90;;;20.29;31.78;98354.03;5225195;28;20202;-58
2021/04/25 07:43:16;;;;;;;14.73;13.32;;;16.90;75.10;;;19.98;32.69;98345.44;5224415;28;20193;-60
2021/04/25 07:45:48;;;;;;;14.85;13.43;;;16.70;76.10;;;19.58;33.60;98344.25;5224100;28;20208;-58
2021/04/25 07:48:20;;;;;;;13.40;12.20;;;16.70;75.50;;;19.13;33.84;98347.22;5218346;28;20223;-57
2021/04/25 07:50:52;;;;;;;15.13;13.55;;;16.60;75.10;;;18.86;34.47;98340.34;5220132;28;20197;-61
2021/04/25 07:53:24;;;;;;;15.60;14.00;;;16.70;74.30;;;18.42;34.39;98342.28;5218293;28;20193;-61
2021/04/25 07:55:56;;;;;;;15.05;13.55;;;16.40;74.50;;;18.37;35.51;98341.28;5221674;28;20224;-60
2021/04/25 07:58:29;;;;;;;14.55;13.30;;;16.30;75.30;;;18.73;34.82;98340.72;5224052;28;20585;-60
2021/04/25 08:01:01;;;;;;;15.00;13.60;;;16.90;73.90;;;18.68;34.47;98344.88;5214348;28;20205;-60
2021/04/25 08:03:33;;;;;;;14.93;13.43;;;17.00;73.10;;;18.71;34.26;98336.34;5227439;28;20232;-65
2021/04/25 08:06:06;;;;;;;14.82;13.43;;;17.20;72.70;;;18.69;34.68;98338.88;5230370;28;20223;-65
2021/04/25 08:08:38;;;;;;;14.68;13.25;;;17.10;73.20;;;18.68;34.09;98342.28;5212322;28;20252;-64
2021/04/25 08:11:11;;;;;;;14.20;12.90;;;17.60;71.20;;;18.50;34.61;98337.38;5226381;28;20228;-63
2021/04/25 08:13:44;;;;;;;14.95;13.52;;;17.40;71.50;;;18.31;35.37;98335.88;5219491;28;20206;-64
2021/04/25 08:16:16;;;;;;;15.05;13.55;;;17.20;72.50;;;18.50;34.98;98336.50;5213961;28;20221;-63
2021/04/25 08:18:48;;;;;;;14.32;12.82;;;17.50;72.30;;;18.53;34.64;98341.78;5219339;28;20216;-63
2021/04/25 08:21:21;;;;;;;14.23;12.82;;;17.60;70.70;;;18.41;35.00;98342.25;5222193;28;20570;-63
2021/04/25 08:23:53;;;;;;;14.63;13.18;;;17.50;70.70;;;18.25;35.10;98340.84;5223514;28;20316;-63
2021/04/25 08:26:26;;;;;;;15.60;14.15;;;17.10;71.60;;;18.10;35.37;98333.44;5224401;28;20201;-63
2021/04/25 08:29:00;;;;;;;14.50;13.07;;;17.00;72.20;;;17.95;35.13;98344.13;5221701;28;20324;-63
2021/04/25 08:31:32;;;;;;;14.43;13.02;;;16.80;72.30;;;17.95;35.61;98341.53;5224828;28;20292;-64
2021/04/25 08:34:04;;;;;;;14.88;12.38;;;16.80;71.80;;;18.07;36.32;98337.63;5217850;28;20194;-64
2021/04/25 08:36:37;;;;;;;10.20;9.25;;;17.00;73.80;;;17.99;34.77;98343.41;5227020;28;20215;-64
2021/04/25 08:39:09;;;;;;;13.07;10.65;;;17.10;70.30;;;17.96;35.48;98343.28;5226189;28;20231;-64
2021/04/25 08:41:46;;;;;;;10.25;9.07;;;17.10;72.30;;;18.20;35.33;98342.41;5227441;28;20231;-64
2021/04/25 08:44:21;;;;;;;11.38;10.20;;;17.30;71.40;;;18.18;34.82;98339.75;5207903;28;20285;-64
2021/04/25 08:46:54;;;;;;;11.27;10.20;;;17.30;70.40;;;18.24;34.99;98344.28;5208730;28;20212;-64
2021/04/25 08:49:27;;;;;;;11.30;9.95;;;17.50;69.90;;;18.17;35.11;98342.28;5207636;28;20221;-64
2021/04/25 08:52:00;;;;;;;11.60;10.40;;;17.30;70.70;;;18.40;35.72;98350.88;5207656;28;20209;-64
2021/04/25 08:54:32;;;;;;;10.73;9.63;;;17.70;70.90;;;18.16;34.17;98343.13;5207830;28;20210;-64
2021/04/25 08:57:05;;;;;;;11.38;10.18;;;17.40;69.70;;;18.50;33.49;98333.94;5222924;28;20225;-63
2021/04/25 08:59:38;;;;;;;9.38;8.43;;;17.50;68.50;;;18.08;33.26;98331.63;5227887;28;20201;-64
2021/04/25 09:02:10;;;;;;;10.20;9.20;;;17.00;67.60;;;17.60;34.53;98332.47;5226421;28;20205;-63
2021/04/25 09:04:42;;;;;;;9.18;8.25;;;16.60;69.60;;;17.71;36.40;98335.44;5221291;28;20261;-64
2021/04/25 09:07:15;;;;;;;10.23;9.20;;;16.90;72.60;;;17.98;35.35;98328.72;5208379;28;20189;-64
2021/04/25 09:09:49;;;;;;;10.02;8.80;;;17.20;69.90;;;18.06;35.66;98341.06;5206415;28;20201;-64
2021/04/25 09:12:35;;;;;;;9.10;8.20;;;17.20;71.00;;;18.13;35.26;98338.72;5207217;28;20296;-64
2021/04/25 09:15:29;;;;;;;10.32;9.27;;;17.40;70.20;;;18.05;36.25;98336.69;5207263;28;20285;-63
2021/04/25 09:18:03;;;;;;;9.77;8.73;;;17.40;71.00;;;18.31;34.64;98335.00;5219057;28;20217;-64
2021/04/25 09:20:39;;;;;;;10.32;8.40;;;17.40;69.40;;;18.04;33.95;98332.34;5227877;28;20201;-64
2021/04/25 09:23:14;;;;;;;8.43;7.50;;;17.30;67.50;;;18.16;34.92;98330.19;5227958;28;20664;-63
2021/04/25 09:25:54;;;;;;;9.63;8.60;;;17.50;69.50;;;18.23;32.60;98329.59;5227665;28;20207;-64
2021/04/25 09:28:27;;;;;;;8.63;7.82;;;17.60;65.90;;;18.25;32.65;98333.06;5227316;28;20228;-64
2021/04/25 09:31:02;;;;;;;9.23;7.93;;;17.60;65.80;;;18.18;32.73;98320.78;5223072;28;20197;-64
2021/04/25 09:33:49;;;;;;;8.88;8.02;;;17.30;66.30;;;18.20;33.09;98321.72;5208096;28;20208;-63
2021/04/25 09:36:24;;;;;;;9.13;8.20;;;17.50;66.00;;;18.05;33.21;98316.88;5206836;28;20260;-63
2021/04/25 09:39:11;;;;;;;8.40;7.60;;;17.50;66.50;;;17.91;32.50;98316.41;5223718;22;20678;-63
2021/04/25 09:41:45;;;;;;;8.73;7.85;;;17.30;65.70;;;17.76;33.55;98315.81;5219978;28;20201;-63
2021/04/25 09:44:32;;;;;;;9.10;7.80;;;16.90;66.40;;;17.94;33.58;98311.34;5227039;28;20204;-64
2021/04/25 09:47:06;;;;;;;10.88;8.50;;;17.20;67.50;;;17.66;33.43;98319.78;5226349;28;20193;-63
2021/04/25 09:49:44;;;;;;;8.90;8.07;;;17.00;66.80;;;17.08;34.32;98308.13;5227140;28;20231;-63
2021/04/25 09:52:36;;;;;;;8.65;7.75;;;16.40;68.20;;;17.35;35.61;98310.00;5221755;28;20236;-64
2021/04/25 09:55:18;;;;;;;10.30;8.13;;;16.60;69.50;;;17.63;34.47;98305.84;5187935;28;20250;-64
2021/04/25 09:57:54;;;;;;;8.80;8.00;;;17.00;67.80;;;17.79;34.26;98301.31;5207766;28;20548;-64
2021/04/25 10:00:40;;;;;;;8.60;7.70;;;17.20;68.40;;;17.65;34.84;98301.59;5199077;28;20194;-64
2021/04/25 10:03:13;;;;;;;7.15;6.45;;;17.10;68.20;;;17.89;34.93;98302.53;5195563;28;20233;-63
2021/04/25 10:05:58;;;;;;;10.00;8.02;;;17.30;68.30;;;17.90;32.69;98309.44;5207093;28;20186;-65
2021/04/25 10:08:31;;;;;;;8.65;7.85;;;17.40;65.50;;;17.87;33.67;98301.59;5205914;28;20214;-65
2021/04/25 10:11:07;;;;;;;9.38;8.07;;;17.20;66.10;;;17.87;33.11;98295.53;5198944;28;20197;-63
2021/04/25 10:13:44;;;;;;;10.35;8.38;;;17.30;65.50;;;17.98;33.16;98289.91;5206953;28;20209;-65
2021/04/25 10:16:19;;;;;;;8.75;7.85;;;17.30;66.00;;;18.04;33.10;98283.19;5201023;28;20228;-66
2021/04/25 10:18:53;;;;;;;7.47;6.82;;;17.50;65.80;;;17.69;33.50;98293.16;5204706;28;20227;-65
2021/04/25 10:21:26;;;;;;;8.57;7.03;;;17.20;65.90;;;17.59;33.76;98289.34;5201220;28;20869;-65
2021/04/25 10:23:59;;;;;;;7.97;7.18;;;16.90;66.60;;;17.16;34.23;98287.75;5206086;28;20293;-65
2021/04/25 10:26:35;;;;;;;8.55;7.65;;;16.40;66.70;;;16.94;34.50;98293.81;5194169;28;20658;-65
2021/04/25 10:29:11;;;;;;;9.25;7.75;;;16.30;67.30;;;16.76;34.98;98288.78;5187330;28;20591;-64
2021/04/25 10:31:44;;;;;;;6.72;6.15;;;16.30;67.60;;;17.06;35.15;98286.53;5202051;28;20344;-65
2021/04/25 10:34:20;;;;;;;7.75;7.05;;;16.60;67.80;;;17.27;34.02;98290.75;5200402;28;20658;-65
2021/04/25 10:37:04;;;;;;;6.97;6.38;;;16.60;66.80;;;17.29;34.28;98283.94;5193414;28;20218;-65
2021/04/25 10:39:46;;;;;;;6.82;6.13;;;16.60;67.20;;;17.45;33.33;98286.25;5196396;28;20228;-65
2021/04/25 10:42:37;;;;;;;7.20;5.82;;;16.80;65.90;;;17.52;34.19;98289.94;5204140;28;20212;-65
2021/04/25 10:45:25;;;;;;;7.18;6.45;;;16.90;67.00;;;17.73;33.36;98282.06;5193169;28;20210;-65